sensor_id;sensor_type;location;lat;lon;timestamp;pressure;altitude;pressure_sealevel;temperature;humidity
16100;BME280;8154;50.830;12.082;2023-10-09T00:01:05;99909.44;;;23.74;39.47
16100;BME280;8154;50.830;12.082;2023-10-09T00:04:02;99903.28;;;23.59;39.54
16100;BME280;8154;50.830;12.082;2023-10-09T00:06:30;99908.38;;;23.54;39.50
16100;BME280;8154;50.830;12.082;2023-10-09T00:09:06;99892.19;;;23.56;39.41
16100;BME280;8154;50.830;12.082;2023-10-09T00:11:58;99887.00;;;23.69;39.49
16100;BME280;8154;50.830;12.082;2023-10-09T00:14:29;99882.50;;;23.69;39.59
16100;BME280;8154;50.830;12.082;2023-10-09T00:17:00;99879.06;;;23.75;39.04
16100;BME280;8154;50.830;12.082;2023-10-09T00:19:40;99877.47;;;23.81;38.86
16100;BME280;8154;50.830;12.082;2023-10-09T00:22:18;99875.19;;;23.78;39.19
16100;BME280;8154;50.830;12.082;2023-10-09T00:24:50;99866.47;;;23.69;39.59
16100;BME280;8154;50.830;12.082;2023-10-09T00:27:37;99869.34;;;23.68;39.35
16100;BME280;8154;50.830;12.082;2023-10-09T00:30:08;99860.84;;;23.79;38.93
16100;BME280;8154;50.830;12.082;2023-10-09T00:32:49;99861.09;;;23.84;38.94
16100;BME280;8154;50.830;12.082;2023-10-09T00:35:36;99847.50;;;23.79;38.98
16100;BME280;8154;50.830;12.082;2023-10-09T00:38:20;99845.44;;;23.81;38.84
16100;BME280;8154;50.830;12.082;2023-10-09T00:41:01;99830.47;;;23.65;39.22
16100;BME280;8154;50.830;12.082;2023-10-09T00:43:38;99832.63;;;23.70;39.43
16100;BME280;8154;50.830;12.082;2023-10-09T00:46:11;99834.25;;;23.71;39.14
16100;BME280;8154;50.830;12.082;2023-10-09T00:48:49;99820.56;;;23.59;39.50
16100;BME280;8154;50.830;12.082;2023-10-09T00:51:16;99822.34;;;23.52;39.76
16100;BME280;8154;50.830;12.082;2023-10-09T00:53:50;99811.56;;;23.60;39.74
16100;BME280;8154;50.830;12.082;2023-10-09T00:56:20;99808.97;;;23.67;39.17
16100;BME280;8154;50.830;12.082;2023-10-09T00:58:59;99795.00;;;23.65;39.48
16100;BME280;8154;50.830;12.082;2023-10-09T01:01:42;99793.97;;;23.66;39.51
16100;BME280;8154;50.830;12.082;2023-10-09T01:04:30;99794.59;;;23.68;39.29
16100;BME280;8154;50.830;12.082;2023-10-09T01:07:04;99798.31;;;23.67;39.37
16100;BME280;8154;50.830;12.082;2023-10-09T01:09:51;99788.72;;;23.58;39.64
16100;BME280;8154;50.830;12.082;2023-10-09T01:12:20;99793.81;;;23.53;39.58
16100;BME280;8154;50.830;12.082;2023-10-09T01:14:47;99798.47;;;23.65;39.19
16100;BME280;8154;50.830;12.082;2023-10-09T01:17:40;99782.28;;;23.67;39.29
16100;BME280;8154;50.830;12.082;2023-10-09T01:20:11;99777.94;;;23.66;39.32
16100;BME280;8154;50.830;12.082;2023-10-09T01:22:43;99772.22;;;23.69;39.16
16100;BME280;8154;50.830;12.082;2023-10-09T01:25:12;99769.75;;;23.67;39.17
16100;BME280;8154;50.830;12.082;2023-10-09T01:27:40;99766.28;;;23.67;39.45
16100;BME280;8154;50.830;12.082;2023-10-09T01:30:07;99759.72;;;23.69;39.17
16100;BME280;8154;50.830;12.082;2023-10-09T01:32:36;99764.59;;;23.66;39.17
16100;BME280;8154;50.830;12.082;2023-10-09T01:35:02;99760.78;;;23.54;39.54
16100;BME280;8154;50.830;12.082;2023-10-09T01:37:34;99771.47;;;23.54;39.49
16100;BME280;8154;50.830;12.082;2023-10-09T01:40:03;99767.84;;;23.61;39.32
16100;BME280;8154;50.830;12.082;2023-10-09T01:42:48;99761.94;;;23.66;39.43
16100;BME280;8154;50.830;12.082;2023-10-09T01:45:14;99748.59;;;23.66;39.45
16100;BME280;8154;50.830;12.082;2023-10-09T01:47:51;99736.94;;;23.67;39.12
16100;BME280;8154;50.830;12.082;2023-10-09T01:50:24;99713.66;;;23.61;39.21
16100;BME280;8154;50.830;12.082;2023-10-09T01:53:04;99710.06;;;23.68;39.10
16100;BME280;8154;50.830;12.082;2023-10-09T01:55:54;99730.28;;;23.84;39.11
16100;BME280;8154;50.830;12.082;2023-10-09T01:58:21;99723.41;;;23.68;39.36
16100;BME280;8154;50.830;12.082;2023-10-09T02:00:49;99714.03;;;23.58;39.49
16100;BME280;8154;50.830;12.082;2023-10-09T02:03:41;99712.00;;;23.60;39.48
16100;BME280;8154;50.830;12.082;2023-10-09T02:06:09;99708.31;;;23.61;39.38
16100;BME280;8154;50.830;12.082;2023-10-09T02:09:01;99713.06;;;23.65;39.20
16100;BME280;8154;50.830;12.082;2023-10-09T02:11:28;99723.59;;;23.67;39.15
16100;BME280;8154;50.830;12.082;2023-10-09T02:14:11;99725.06;;;23.55;39.59
16100;BME280;8154;50.830;12.082;2023-10-09T02:16:48;99723.16;;;23.49;39.85
16100;BME280;8154;50.830;12.082;2023-10-09T02:19:34;99713.66;;;23.61;39.32
16100;BME280;8154;50.830;12.082;2023-10-09T02:22:06;99705.25;;;23.64;39.31
16100;BME280;8154;50.830;12.082;2023-10-09T02:24:42;99699.56;;;23.67;39.32
16100;BME280;8154;50.830;12.082;2023-10-09T02:27:19;99690.72;;;23.66;39.34
16100;BME280;8154;50.830;12.082;2023-10-09T02:30:23;99687.09;;;23.74;39.01
16100;BME280;8154;50.830;12.082;2023-10-09T02:32:56;99672.69;;;23.68;39.40
16100;BME280;8154;50.830;12.082;2023-10-09T02:35:38;99677.50;;;23.58;39.47
16100;BME280;8154;50.830;12.082;2023-10-09T02:38:07;99670.75;;;23.62;39.52
16100;BME280;8154;50.830;12.082;2023-10-09T02:40:38;99661.00;;;23.69;39.20
16100;BME280;8154;50.830;12.082;2023-10-09T02:43:35;99657.47;;;23.69;39.47
16100;BME280;8154;50.830;12.082;2023-10-09T02:46:14;99639.19;;;23.66;39.28
16100;BME280;8154;50.830;12.082;2023-10-09T02:48:44;99636.59;;;23.72;39.03
16100;BME280;8154;50.830;12.082;2023-10-09T02:51:22;99639.00;;;23.67;39.11
16100;BME280;8154;50.830;12.082;2023-10-09T02:54:11;99643.53;;;23.67;39.46
16100;BME280;8154;50.830;12.082;2023-10-09T02:56:52;99641.03;;;23.65;39.42
16100;BME280;8154;50.830;12.082;2023-10-09T02:59:34;99634.69;;;23.66;39.08
16100;BME280;8154;50.830;12.082;2023-10-09T03:02:00;99643.09;;;23.63;39.50
16100;BME280;8154;50.830;12.082;2023-10-09T03:04:46;99635.78;;;23.51;39.73
16100;BME280;8154;50.830;12.082;2023-10-09T03:07:18;99645.00;;;23.48;39.76
16100;BME280;8154;50.830;12.082;2023-10-09T03:09:46;99637.69;;;23.57;39.40
16100;BME280;8154;50.830;12.082;2023-10-09T03:12:19;99619.25;;;23.62;39.38
16100;BME280;8154;50.830;12.082;2023-10-09T03:14:55;99613.53;;;23.65;39.44
16100;BME280;8154;50.830;12.082;2023-10-09T03:17:26;99610.09;;;23.71;39.19
16100;BME280;8154;50.830;12.082;2023-10-09T03:19:54;99615.50;;;23.77;39.08
16100;BME280;8154;50.830;12.082;2023-10-09T03:22:22;99623.03;;;23.74;39.03
16100;BME280;8154;50.830;12.082;2023-10-09T03:24:49;99624.97;;;23.59;39.30
16100;BME280;8154;50.830;12.082;2023-10-09T03:27:19;99618.75;;;23.52;39.56
16100;BME280;8154;50.830;12.082;2023-10-09T03:29:47;99601.75;;;23.53;39.85
16100;BME280;8154;50.830;12.082;2023-10-09T03:32:16;99584.19;;;23.44;39.55
16100;BME280;8154;50.830;12.082;2023-10-09T03:34:42;99597.47;;;23.58;39.47
16100;BME280;8154;50.830;12.082;2023-10-09T03:37:09;99608.13;;;23.58;39.42
16100;BME280;8154;50.830;12.082;2023-10-09T03:39:48;99613.28;;;23.60;39.69
16100;BME280;8154;50.830;12.082;2023-10-09T03:42:22;99618.03;;;23.64;39.47
16100;BME280;8154;50.830;12.082;2023-10-09T03:44:50;99621.16;;;23.68;39.33
16100;BME280;8154;50.830;12.082;2023-10-09T03:47:25;99627.53;;;23.67;39.21
16100;BME280;8154;50.830;12.082;2023-10-09T03:50:12;99626.50;;;23.68;39.16
16100;BME280;8154;50.830;12.082;2023-10-09T03:52:53;99622.13;;;23.60;39.31
16100;BME280;8154;50.830;12.082;2023-10-09T03:55:23;99622.44;;;23.51;39.72
16100;BME280;8154;50.830;12.082;2023-10-09T03:57:55;99620.81;;;23.50;39.74
16100;BME280;8154;50.830;12.082;2023-10-09T04:00:28;99608.41;;;23.63;39.42
16100;BME280;8154;50.830;12.082;2023-10-09T04:02:56;99611.53;;;23.73;38.94
16100;BME280;8154;50.830;12.082;2023-10-09T04:05:27;99609.91;;;23.72;39.03
16100;BME280;8154;50.830;12.082;2023-10-09T04:07:55;99619.34;;;23.75;39.20
16100;BME280;8154;50.830;12.082;2023-10-09T04:10:35;99604.75;;;23.71;39.12
16100;BME280;8154;50.830;12.082;2023-10-09T04:13:18;99607.81;;;23.68;39.35
16100;BME280;8154;50.830;12.082;2023-10-09T04:15:50;99598.53;;;23.64;39.28
16100;BME280;8154;50.830;12.082;2023-10-09T04:18:20;99601.53;;;23.54;39.29
16100;BME280;8154;50.830;12.082;2023-10-09T04:20:46;99594.94;;;23.50;39.52
16100;BME280;8154;50.830;12.082;2023-10-09T04:23:32;99573.53;;;23.44;39.58
16100;BME280;8154;50.830;12.082;2023-10-09T04:26:16;99585.16;;;23.57;39.33
16100;BME280;8154;50.830;12.082;2023-10-09T04:28:42;99573.06;;;23.61;39.30
16100;BME280;8154;50.830;12.082;2023-10-09T04:31:18;99573.72;;;23.63;39.42
16100;BME280;8154;50.830;12.082;2023-10-09T04:33:48;99570.84;;;23.65;39.28
16100;BME280;8154;50.830;12.082;2023-10-09T04:36:24;99570.41;;;23.61;39.25
16100;BME280;8154;50.830;12.082;2023-10-09T04:38:57;99557.06;;;23.61;39.19
16100;BME280;8154;50.830;12.082;2023-10-09T04:41:33;99559.34;;;23.64;39.14
16100;BME280;8154;50.830;12.082;2023-10-09T04:44:19;99550.75;;;23.69;39.26
16100;BME280;8154;50.830;12.082;2023-10-09T04:46:53;99552.03;;;23.73;39.23
16100;BME280;8154;50.830;12.082;2023-10-09T04:49:39;99542.53;;;23.70;39.00
16100;BME280;8154;50.830;12.082;2023-10-09T04:52:28;99534.47;;;23.64;39.38
16100;BME280;8154;50.830;12.082;2023-10-09T04:54:56;99529.53;;;23.54;39.79
16100;BME280;8154;50.830;12.082;2023-10-09T04:57:39;99528.38;;;23.42;39.63
16100;BME280;8154;50.830;12.082;2023-10-09T05:00:10;99533.56;;;23.50;39.77
16100;BME280;8154;50.830;12.082;2023-10-09T05:03:08;99535.25;;;23.51;39.61
16100;BME280;8154;50.830;12.082;2023-10-09T05:05:40;99545.72;;;23.53;39.62
16100;BME280;8154;50.830;12.082;2023-10-09T05:08:17;99552.06;;;23.52;39.68
16100;BME280;8154;50.830;12.082;2023-10-09T05:10:52;99546.31;;;23.55;39.75
16100;BME280;8154;50.830;12.082;2023-10-09T05:13:34;99541.56;;;23.50;39.84
16100;BME280;8154;50.830;12.082;2023-10-09T05:16:10;99542.94;;;23.40;40.00
16100;BME280;8154;50.830;12.082;2023-10-09T05:18:56;99537.78;;;23.38;39.80
16100;BME280;8154;50.830;12.082;2023-10-09T05:23:59;99543.84;;;23.53;39.54
16100;BME280;8154;50.830;12.082;2023-10-09T05:27:00;99537.94;;;23.58;39.31
16100;BME280;8154;50.830;12.082;2023-10-09T05:29:45;99538.38;;;23.61;39.43
16100;BME280;8154;50.830;12.082;2023-10-09T05:32:29;99539.63;;;23.65;39.26
16100;BME280;8154;50.830;12.082;2023-10-09T05:35:02;99541.44;;;23.58;39.20
16100;BME280;8154;50.830;12.082;2023-10-09T05:37:48;99537.31;;;23.56;39.50
16100;BME280;8154;50.830;12.082;2023-10-09T05:40:27;99531.69;;;23.44;39.66
16100;BME280;8154;50.830;12.082;2023-10-09T05:43:01;99520.53;;;23.34;39.73
16100;BME280;8154;50.830;12.082;2023-10-09T05:45:49;99534.59;;;23.49;39.56
16100;BME280;8154;50.830;12.082;2023-10-09T05:48:19;99533.38;;;23.52;39.42
16100;BME280;8154;50.830;12.082;2023-10-09T05:51:04;99529.72;;;23.53;39.66
16100;BME280;8154;50.830;12.082;2023-10-09T05:53:41;99535.25;;;23.51;39.51
16100;BME280;8154;50.830;12.082;2023-10-09T05:56:31;99530.28;;;23.48;39.81
16100;BME280;8154;50.830;12.082;2023-10-09T05:59:36;99534.41;;;23.51;39.63
16100;BME280;8154;50.830;12.082;2023-10-09T06:02:25;99537.47;;;23.48;39.62
16100;BME280;8154;50.830;12.082;2023-10-09T06:05:30;99539.03;;;23.42;39.67
16100;BME280;8154;50.830;12.082;2023-10-09T06:08:23;99523.34;;;23.26;39.79
16100;BME280;8154;50.830;12.082;2023-10-09T06:11:27;99552.25;;;23.50;39.68
16100;BME280;8154;50.830;12.082;2023-10-09T06:14:11;99544.44;;;23.49;39.60
16100;BME280;8154;50.830;12.082;2023-10-09T06:16:54;99554.34;;;23.55;39.60
16100;BME280;8154;50.830;12.082;2023-10-09T06:19:30;99558.03;;;23.54;39.77
16100;BME280;8154;50.830;12.082;2023-10-09T06:22:10;99556.00;;;23.56;39.39
16100;BME280;8154;50.830;12.082;2023-10-09T06:25:25;99575.44;;;23.50;39.49
16100;BME280;8154;50.830;12.082;2023-10-09T06:28:10;99576.63;;;23.47;39.70
16100;BME280;8154;50.830;12.082;2023-10-09T06:30:52;99564.66;;;23.37;39.95
16100;BME280;8154;50.830;12.082;2023-10-09T06:33:24;99574.09;;;23.39;40.02
16100;BME280;8154;50.830;12.082;2023-10-09T06:36:17;99579.06;;;23.42;40.00
16100;BME280;8154;50.830;12.082;2023-10-09T06:38:47;99579.03;;;23.36;40.07
16100;BME280;8154;50.830;12.082;2023-10-09T06:41:38;99581.69;;;23.36;39.96
16100;BME280;8154;50.830;12.082;2023-10-09T06:44:09;99587.22;;;23.34;40.11
16100;BME280;8154;50.830;12.082;2023-10-09T06:47:04;99590.28;;;23.38;40.08
16100;BME280;8154;50.830;12.082;2023-10-09T06:49:53;99585.28;;;23.28;40.06
16100;BME280;8154;50.830;12.082;2023-10-09T06:52:38;99579.03;;;23.21;40.12
16100;BME280;8154;50.830;12.082;2023-10-09T06:55:42;99583.97;;;23.39;40.05
16100;BME280;8154;50.830;12.082;2023-10-09T06:58:22;99591.19;;;23.45;39.85
16100;BME280;8154;50.830;12.082;2023-10-09T07:01:08;99593.28;;;23.49;39.52
16100;BME280;8154;50.830;12.082;2023-10-09T07:04:14;99605.00;;;23.48;39.59
16100;BME280;8154;50.830;12.082;2023-10-09T07:06:48;99600.47;;;23.49;39.62
16100;BME280;8154;50.830;12.082;2023-10-09T07:09:15;99611.13;;;23.49;39.53
16100;BME280;8154;50.830;12.082;2023-10-09T07:11:43;99624.66;;;23.47;39.62
16100;BME280;8154;50.830;12.082;2023-10-09T07:14:17;99621.50;;;23.37;39.85
16100;BME280;8154;50.830;12.082;2023-10-09T07:17:04;99637.06;;;23.34;40.08
16100;BME280;8154;50.830;12.082;2023-10-09T07:19:55;99624.19;;;23.23;40.11
16100;BME280;8154;50.830;12.082;2023-10-09T07:22:42;99640.00;;;23.24;40.27
16100;BME280;8154;50.830;12.082;2023-10-09T07:25:24;99644.34;;;23.25;39.94
16100;BME280;8154;50.830;12.082;2023-10-09T07:28:24;99643.53;;;23.25;40.09
16100;BME280;8154;50.830;12.082;2023-10-09T07:31:16;99644.50;;;23.24;40.43
16100;BME280;8154;50.830;12.082;2023-10-09T07:34:05;99642.75;;;23.31;40.03
16100;BME280;8154;50.830;12.082;2023-10-09T07:36:52;99633.16;;;23.36;39.96
16100;BME280;8154;50.830;12.082;2023-10-09T07:39:36;99633.88;;;23.45;39.66
16100;BME280;8154;50.830;12.082;2023-10-09T07:42:04;99630.00;;;23.47;39.88
16100;BME280;8154;50.830;12.082;2023-10-09T07:45:18;99639.09;;;23.53;39.72
16100;BME280;8154;50.830;12.082;2023-10-09T07:47:52;99630.56;;;23.43;39.69
16100;BME280;8154;50.830;12.082;2023-10-09T07:50:40;99639.06;;;23.32;40.05
16100;BME280;8154;50.830;12.082;2023-10-09T07:53:10;99638.63;;;23.28;40.22
16100;BME280;8154;50.830;12.082;2023-10-09T07:56:07;99627.88;;;23.22;40.15
16100;BME280;8154;50.830;12.082;2023-10-09T07:58:36;99644.25;;;23.19;40.28
16100;BME280;8154;50.830;12.082;2023-10-09T08:01:14;99638.09;;;23.18;40.32
16100;BME280;8154;50.830;12.082;2023-10-09T08:04:05;99640.56;;;23.20;40.35
16100;BME280;8154;50.830;12.082;2023-10-09T08:06:43;99636.00;;;23.14;40.49
16100;BME280;8154;50.830;12.082;2023-10-09T08:09:15;99651.22;;;23.20;40.48
16100;BME280;8154;50.830;12.082;2023-10-09T08:11:46;99648.56;;;23.20;40.50
16100;BME280;8154;50.830;12.082;2023-10-09T08:14:15;99661.16;;;23.26;40.37
16100;BME280;8154;50.830;12.082;2023-10-09T08:17:00;99649.03;;;23.23;40.17
16100;BME280;8154;50.830;12.082;2023-10-09T08:19:56;99652.41;;;23.32;39.98
16100;BME280;8154;50.830;12.082;2023-10-09T08:22:39;99655.44;;;23.29;40.11
16100;BME280;8154;50.830;12.082;2023-10-09T08:25:13;99651.53;;;23.25;40.24
16100;BME280;8154;50.830;12.082;2023-10-09T08:28:02;99649.66;;;23.25;40.25
16100;BME280;8154;50.830;12.082;2023-10-09T08:30:41;99673.22;;;23.22;40.13
16100;BME280;8154;50.830;12.082;2023-10-09T08:33:16;99664.19;;;23.23;40.35
16100;BME280;8154;50.830;12.082;2023-10-09T08:36:10;99666.56;;;23.18;40.60
16100;BME280;8154;50.830;12.082;2023-10-09T08:38:44;99675.22;;;23.20;40.47
16100;BME280;8154;50.830;12.082;2023-10-09T08:41:13;99668.25;;;23.19;40.54
16100;BME280;8154;50.830;12.082;2023-10-09T08:43:49;99666.56;;;23.18;40.35
16100;BME280;8154;50.830;12.082;2023-10-09T08:46:24;99658.59;;;23.18;40.49
16100;BME280;8154;50.830;12.082;2023-10-09T08:48:57;99666.19;;;23.21;40.30
16100;BME280;8154;50.830;12.082;2023-10-09T08:51:33;99663.16;;;23.24;40.42
16100;BME280;8154;50.830;12.082;2023-10-09T08:54:20;99651.88;;;23.22;40.09
16100;BME280;8154;50.830;12.082;2023-10-09T08:56:55;99655.53;;;23.21;40.59
16100;BME280;8154;50.830;12.082;2023-10-09T08:59:22;99660.06;;;23.20;40.28
16100;BME280;8154;50.830;12.082;2023-10-09T09:01:51;99668.88;;;23.21;40.44
16100;BME280;8154;50.830;12.082;2023-10-09T09:04:38;99660.88;;;23.21;40.63
16100;BME280;8154;50.830;12.082;2023-10-09T09:07:28;99661.88;;;23.20;40.30
16100;BME280;8154;50.830;12.082;2023-10-09T09:10:01;99664.84;;;23.25;40.19
16100;BME280;8154;50.830;12.082;2023-10-09T09:12:48;99646.91;;;23.19;40.23
16100;BME280;8154;50.830;12.082;2023-10-09T09:15:55;99652.88;;;23.21;40.27
16100;BME280;8154;50.830;12.082;2023-10-09T09:18:26;99666.00;;;23.22;40.23
16100;BME280;8154;50.830;12.082;2023-10-09T09:21:17;99647.88;;;23.11;40.51
16100;BME280;8154;50.830;12.082;2023-10-09T09:24:00;99666.38;;;23.19;40.48
16100;BME280;8154;50.830;12.082;2023-10-09T09:27:01;99673.41;;;23.20;40.51
16100;BME280;8154;50.830;12.082;2023-10-09T09:30:06;99671.16;;;23.24;40.42
16100;BME280;8154;50.830;12.082;2023-10-09T09:32:50;99685.31;;;23.24;40.24
16100;BME280;8154;50.830;12.082;2023-10-09T09:35:59;99676.25;;;23.19;40.41
16100;BME280;8154;50.830;12.082;2023-10-09T09:38:37;99667.22;;;23.20;40.29
16100;BME280;8154;50.830;12.082;2023-10-09T09:41:31;99669.63;;;23.15;40.36
16100;BME280;8154;50.830;12.082;2023-10-09T09:44:00;99668.44;;;23.17;40.54
16100;BME280;8154;50.830;12.082;2023-10-09T09:46:36;99648.59;;;23.05;40.60
16100;BME280;8154;50.830;12.082;2023-10-09T09:49:14;99670.66;;;23.14;40.72
16100;BME280;8154;50.830;12.082;2023-10-09T09:51:49;99659.16;;;23.13;40.52
16100;BME280;8154;50.830;12.082;2023-10-09T09:54:38;99653.19;;;23.11;40.75
16100;BME280;8154;50.830;12.082;2023-10-09T09:57:12;99652.38;;;23.11;40.56
16100;BME280;8154;50.830;12.082;2023-10-09T09:59:48;99649.50;;;23.12;40.53
16100;BME280;8154;50.830;12.082;2023-10-09T10:02:28;99646.84;;;23.12;40.49
16100;BME280;8154;50.830;12.082;2023-10-09T10:05:04;99639.69;;;23.13;40.53
16100;BME280;8154;50.830;12.082;2023-10-09T10:07:34;99634.34;;;23.13;40.60
16100;BME280;8154;50.830;12.082;2023-10-09T10:13:02;99630.66;;;23.14;40.44
16100;BME280;8154;50.830;12.082;2023-10-09T10:16:05;99619.59;;;23.17;40.77
16100;BME280;8154;50.830;12.082;2023-10-09T10:19:07;99636.69;;;23.22;40.33
16100;BME280;8154;50.830;12.082;2023-10-09T10:21:43;99622.91;;;23.19;40.59
16100;BME280;8154;50.830;12.082;2023-10-09T10:32:56;99625.41;;;23.20;40.45
16100;BME280;8154;50.830;12.082;2023-10-09T10:35:24;99618.59;;;23.18;40.56
16100;BME280;8154;50.830;12.082;2023-10-09T10:38:39;99613.25;;;23.18;40.62
16100;BME280;8154;50.830;12.082;2023-10-09T10:41:19;99618.41;;;23.19;40.63
16100;BME280;8154;50.830;12.082;2023-10-09T10:43:50;99615.88;;;23.11;40.65
16100;BME280;8154;50.830;12.082;2023-10-09T10:46:23;99606.66;;;23.14;40.36
16100;BME280;8154;50.830;12.082;2023-10-09T10:48:55;99628.25;;;23.19;40.50
16100;BME280;8154;50.830;12.082;2023-10-09T10:51:42;99628.69;;;23.22;40.20
16100;BME280;8154;50.830;12.082;2023-10-09T10:54:23;99615.34;;;23.22;40.36
16100;BME280;8154;50.830;12.082;2023-10-09T10:57:21;99608.88;;;23.25;40.19
16100;BME280;8154;50.830;12.082;2023-10-09T11:00:20;99614.81;;;23.27;40.38
16100;BME280;8154;50.830;12.082;2023-10-09T11:03:06;99609.03;;;23.23;40.12
16100;BME280;8154;50.830;12.082;2023-10-09T11:05:43;99614.34;;;23.23;40.36
16100;BME280;8154;50.830;12.082;2023-10-09T11:08:24;99609.81;;;23.24;40.36
16100;BME280;8154;50.830;12.082;2023-10-09T11:11:13;99615.16;;;23.24;40.37
16100;BME280;8154;50.830;12.082;2023-10-09T11:13:43;99609.81;;;23.24;40.49
16100;BME280;8154;50.830;12.082;2023-10-09T11:16:38;99605.31;;;23.24;40.31
16100;BME280;8154;50.830;12.082;2023-10-09T11:19:19;99613.91;;;23.20;40.57
16100;BME280;8154;50.830;12.082;2023-10-09T11:22:10;99612.25;;;23.19;40.57
16100;BME280;8154;50.830;12.082;2023-10-09T11:24:36;99604.69;;;23.22;40.51
16100;BME280;8154;50.830;12.082;2023-10-09T11:27:06;99602.00;;;23.22;40.29
16100;BME280;8154;50.830;12.082;2023-10-09T11:29:48;99589.53;;;23.23;40.40
16100;BME280;8154;50.830;12.082;2023-10-09T11:32:35;99602.50;;;23.26;40.23
16100;BME280;8154;50.830;12.082;2023-10-09T11:35:10;99594.50;;;23.26;40.22
16100;BME280;8154;50.830;12.082;2023-10-09T11:37:41;99596.34;;;23.25;40.35
16100;BME280;8154;50.830;12.082;2023-10-09T11:40:32;99586.50;;;23.26;40.37
16100;BME280;8154;50.830;12.082;2023-10-09T11:43:17;99586.13;;;23.29;40.40
16100;BME280;8154;50.830;12.082;2023-10-09T11:45:50;99587.69;;;23.23;40.33
16100;BME280;8154;50.830;12.082;2023-10-09T11:48:35;99585.81;;;23.24;40.42
16100;BME280;8154;50.830;12.082;2023-10-09T11:51:13;99580.88;;;23.21;40.52
16100;BME280;8154;50.830;12.082;2023-10-09T11:53:43;99571.22;;;23.20;40.48
16100;BME280;8154;50.830;12.082;2023-10-09T11:56:18;99576.56;;;23.20;40.56
16100;BME280;8154;50.830;12.082;2023-10-09T11:58:50;99564.88;;;23.21;40.51
16100;BME280;8154;50.830;12.082;2023-10-09T12:01:17;99560.56;;;23.20;40.62
16100;BME280;8154;50.830;12.082;2023-10-09T12:04:05;99554.00;;;23.22;40.47
16100;BME280;8154;50.830;12.082;2023-10-09T12:06:41;99547.88;;;23.22;40.53
16100;BME280;8154;50.830;12.082;2023-10-09T12:09:10;99540.06;;;23.20;40.42
16100;BME280;8154;50.830;12.082;2023-10-09T12:12:08;99544.19;;;23.23;40.50
16100;BME280;8154;50.830;12.082;2023-10-09T12:14:54;99531.03;;;23.21;40.23
16100;BME280;8154;50.830;12.082;2023-10-09T12:17:30;99542.53;;;23.22;40.32
16100;BME280;8154;50.830;12.082;2023-10-09T12:20:00;99539.88;;;23.22;40.27
16100;BME280;8154;50.830;12.082;2023-10-09T12:22:29;99547.03;;;23.21;40.46
16100;BME280;8154;50.830;12.082;2023-10-09T12:25:00;99549.72;;;23.21;40.34
16100;BME280;8154;50.830;12.082;2023-10-09T12:27:45;99545.22;;;23.22;40.25
16100;BME280;8154;50.830;12.082;2023-10-09T12:30:14;99546.59;;;23.18;40.46
16100;BME280;8154;50.830;12.082;2023-10-09T12:32:44;99543.75;;;23.19;40.52
16100;BME280;8154;50.830;12.082;2023-10-09T12:35:14;99547.03;;;23.21;40.56
16100;BME280;8154;50.830;12.082;2023-10-09T12:37:46;99542.53;;;23.22;40.30
16100;BME280;8154;50.830;12.082;2023-10-09T12:40:15;99540.88;;;23.21;40.56
16100;BME280;8154;50.830;12.082;2023-10-09T12:42:51;99537.59;;;23.19;40.42
16100;BME280;8154;50.830;12.082;2023-10-09T12:45:37;99525.25;;;23.18;40.35
16100;BME280;8154;50.830;12.082;2023-10-09T12:48:24;99535.72;;;23.19;40.45
16100;BME280;8154;50.830;12.082;2023-10-09T12:51:06;99533.91;;;23.20;40.51
16100;BME280;8154;50.830;12.082;2023-10-09T12:53:33;99509.78;;;23.07;40.57
16100;BME280;8154;50.830;12.082;2023-10-09T12:56:00;99540.88;;;23.21;40.48
16100;BME280;8154;50.830;12.082;2023-10-09T12:58:43;99542.53;;;23.22;40.49
16100;BME280;8154;50.830;12.082;2023-10-09T13:01:32;99526.28;;;23.17;40.55
16100;BME280;8154;50.830;12.082;2023-10-09T13:04:27;99530.84;;;23.23;40.50
16100;BME280;8154;50.830;12.082;2023-10-09T13:06:59;99525.31;;;23.24;40.26
16100;BME280;8154;50.830;12.082;2023-10-09T13:09:33;99524.34;;;23.25;40.49
16100;BME280;8154;50.830;12.082;2023-10-09T13:12:20;99526.19;;;23.25;40.65
16100;BME280;8154;50.830;12.082;2023-10-09T13:14:53;99525.31;;;23.24;40.60
16100;BME280;8154;50.830;12.082;2023-10-09T13:17:22;99525.31;;;23.24;40.09
16100;BME280;8154;50.830;12.082;2023-10-09T13:20:06;99525.31;;;23.24;40.47
16100;BME280;8154;50.830;12.082;2023-10-09T13:22:42;99540.50;;;23.24;40.36
16100;BME280;8154;50.830;12.082;2023-10-09T13:25:15;99529.81;;;23.24;40.23
16100;BME280;8154;50.830;12.082;2023-10-09T13:28:01;99536.88;;;23.25;40.50
16100;BME280;8154;50.830;12.082;2023-10-09T13:30:29;99520.69;;;23.12;40.61
16100;BME280;8154;50.830;12.082;2023-10-09T13:32:57;99533.72;;;23.21;40.37
16100;BME280;8154;50.830;12.082;2023-10-09T13:35:27;99492.41;;;22.90;40.63
16100;BME280;8154;50.830;12.082;2023-10-09T13:38:23;99535.34;;;23.22;40.40
16100;BME280;8154;50.830;12.082;2023-10-09T13:40:57;99549.53;;;23.23;40.41
16100;BME280;8154;50.830;12.082;2023-10-09T13:43:31;99548.34;;;23.25;40.50
16100;BME280;8154;50.830;12.082;2023-10-09T13:46:17;99555.53;;;23.25;40.49
16100;BME280;8154;50.830;12.082;2023-10-09T13:48:44;99550.19;;;23.25;40.35
16100;BME280;8154;50.830;12.082;2023-10-09T13:51:15;99559.84;;;23.26;40.29
16100;BME280;8154;50.830;12.082;2023-10-09T13:53:48;99563.94;;;23.28;40.35
16100;BME280;8154;50.830;12.082;2023-10-09T13:56:34;99568.66;;;23.26;40.16
16100;BME280;8154;50.830;12.082;2023-10-09T13:59:24;99575.44;;;23.29;40.26
16100;BME280;8154;50.830;12.082;2023-10-09T14:01:55;99583.00;;;23.25;40.21
16100;BME280;8154;50.830;12.082;2023-10-09T14:04:23;99586.50;;;23.26;40.17
16100;BME280;8154;50.830;12.082;2023-10-09T14:07:11;99575.94;;;23.18;40.55
16100;BME280;8154;50.830;12.082;2023-10-09T14:09:43;99581.50;;;23.23;40.29
16100;BME280;8154;50.830;12.082;2023-10-09T14:12:29;99580.13;;;23.27;40.25
16100;BME280;8154;50.830;12.082;2023-10-09T14:14:56;99578.66;;;23.24;40.31
16100;BME280;8154;50.830;12.082;2023-10-09T14:17:26;99586.31;;;23.27;40.18